sensor_id;sensor_type;location;lat;lon;timestamp;P1;durP1;ratioP1;P2;durP2;ratioP2
77170;SDS011;66144;50.020;14.422;2023-03-21T00:00:32;8.00;;;5.10;;
77170;SDS011;66144;50.020;14.422;2023-03-21T00:02:57;6.63;;;4.53;;
77170;SDS011;66144;50.020;14.422;2023-03-21T00:05:23;8.60;;;4.80;;
77170;SDS011;66144;50.020;14.422;2023-03-21T00:07:48;6.30;;;4.30;;
77170;SDS011;66144;50.020;14.422;2023-03-21T00:10:14;8.98;;;4.25;;
77170;SDS011;66144;50.020;14.422;2023-03-21T00:12:39;9.38;;;5.10;;
77170;SDS011;66144;50.020;14.422;2023-03-21T00:15:08;7.45;;;4.78;;
77170;SDS011;66144;50.020;14.422;2023-03-21T00:17:35;7.60;;;4.57;;
77170;SDS011;66144;50.020;14.422;2023-03-21T00:20:04;8.23;;;4.65;;
77170;SDS011;66144;50.020;14.422;2023-03-21T00:22:35;8.85;;;5.00;;
77170;SDS011;66144;50.020;14.422;2023-03-21T00:25:00;6.55;;;4.30;;
77170;SDS011;66144;50.020;14.422;2023-03-21T00:27:26;8.27;;;4.72;;
77170;SDS011;66144;50.020;14.422;2023-03-21T00:29:51;7.40;;;4.68;;
77170;SDS011;66144;50.020;14.422;2023-03-21T00:32:17;6.93;;;4.50;;
77170;SDS011;66144;50.020;14.422;2023-03-21T00:34:44;8.43;;;5.07;;
77170;SDS011;66144;50.020;14.422;2023-03-21T00:37:10;7.53;;;4.60;;
77170;SDS011;66144;50.020;14.422;2023-03-21T00:39:38;8.27;;;4.82;;
77170;SDS011;66144;50.020;14.422;2023-03-21T00:42:04;8.90;;;5.30;;
77170;SDS011;66144;50.020;14.422;2023-03-21T00:44:30;7.63;;;5.03;;
77170;SDS011;66144;50.020;14.422;2023-03-21T00:47:01;7.38;;;4.70;;
77170;SDS011;66144;50.020;14.422;2023-03-21T00:49:27;9.25;;;5.20;;
77170;SDS011;66144;50.020;14.422;2023-03-21T00:51:57;8.75;;;5.55;;
77170;SDS011;66144;50.020;14.422;2023-03-21T00:54:24;8.05;;;5.60;;
77170;SDS011;66144;50.020;14.422;2023-03-21T00:56:50;7.63;;;4.85;;
77170;SDS011;66144;50.020;14.422;2023-03-21T00:59:15;7.88;;;4.85;;
77170;SDS011;66144;50.020;14.422;2023-03-21T01:01:41;9.02;;;4.82;;
77170;SDS011;66144;50.020;14.422;2023-03-21T01:04:06;8.70;;;5.63;;
77170;SDS011;66144;50.020;14.422;2023-03-21T01:06:37;10.82;;;5.72;;
77170;SDS011;66144;50.020;14.422;2023-03-21T01:09:04;9.10;;;5.38;;
77170;SDS011;66144;50.020;14.422;2023-03-21T01:11:30;8.82;;;5.22;;
77170;SDS011;66144;50.020;14.422;2023-03-21T01:13:56;11.38;;;6.10;;
77170;SDS011;66144;50.020;14.422;2023-03-21T01:16:21;9.18;;;4.90;;
77170;SDS011;66144;50.020;14.422;2023-03-21T01:18:47;9.10;;;4.93;;
77170;SDS011;66144;50.020;14.422;2023-03-21T01:21:13;9.63;;;5.00;;
77170;SDS011;66144;50.020;14.422;2023-03-21T01:23:39;8.18;;;4.85;;
77170;SDS011;66144;50.020;14.422;2023-03-21T01:26:06;10.25;;;5.22;;
77170;SDS011;66144;50.020;14.422;2023-03-21T01:28:33;8.13;;;4.03;;
77170;SDS011;66144;50.020;14.422;2023-03-21T01:30:59;9.02;;;5.50;;
77170;SDS011;66144;50.020;14.422;2023-03-21T01:33:26;11.38;;;6.18;;
77170;SDS011;66144;50.020;14.422;2023-03-21T01:35:52;9.80;;;4.97;;
77170;SDS011;66144;50.020;14.422;2023-03-21T01:38:18;9.13;;;5.15;;
77170;SDS011;66144;50.020;14.422;2023-03-21T01:40:45;8.25;;;5.13;;
77170;SDS011;66144;50.020;14.422;2023-03-21T01:43:23;9.10;;;5.13;;
77170;SDS011;66144;50.020;14.422;2023-03-21T01:48:45;10.88;;;5.65;;
77170;SDS011;66144;50.020;14.422;2023-03-21T01:51:40;9.68;;;5.35;;
77170;SDS011;66144;50.020;14.422;2023-03-21T01:56:39;11.07;;;6.05;;
77170;SDS011;66144;50.020;14.422;2023-03-21T01:59:10;8.20;;;4.22;;
77170;SDS011;66144;50.020;14.422;2023-03-21T02:01:38;8.10;;;5.40;;
77170;SDS011;66144;50.020;14.422;2023-03-21T02:04:06;10.60;;;5.63;;
77170;SDS011;66144;50.020;14.422;2023-03-21T02:06:43;9.27;;;5.55;;
77170;SDS011;66144;50.020;14.422;2023-03-21T02:09:15;9.93;;;5.85;;
77170;SDS011;66144;50.020;14.422;2023-03-21T02:11:44;10.48;;;5.85;;
77170;SDS011;66144;50.020;14.422;2023-03-21T02:14:15;9.45;;;5.68;;
77170;SDS011;66144;50.020;14.422;2023-03-21T02:16:45;9.07;;;6.10;;
77170;SDS011;66144;50.020;14.422;2023-03-21T02:25:06;13.57;;;6.82;;
77170;SDS011;66144;50.020;14.422;2023-03-21T02:27:39;11.23;;;6.40;;
77170;SDS011;66144;50.020;14.422;2023-03-21T02:46:45;12.32;;;6.38;;
77170;SDS011;66144;50.020;14.422;2023-03-21T02:51:56;11.10;;;6.93;;
77170;SDS011;66144;50.020;14.422;2023-03-21T02:54:23;12.38;;;6.75;;
77170;SDS011;66144;50.020;14.422;2023-03-21T02:56:50;10.07;;;5.78;;
77170;SDS011;66144;50.020;14.422;2023-03-21T02:59:18;9.75;;;5.72;;
77170;SDS011;66144;50.020;14.422;2023-03-21T03:01:46;11.50;;;6.03;;
77170;SDS011;66144;50.020;14.422;2023-03-21T03:04:16;15.38;;;7.13;;
77170;SDS011;66144;50.020;14.422;2023-03-21T03:07:06;11.25;;;6.70;;
77170;SDS011;66144;50.020;14.422;2023-03-21T03:12:36;11.95;;;7.03;;
77170;SDS011;66144;50.020;14.422;2023-03-21T03:25:25;10.13;;;5.88;;
77170;SDS011;66144;50.020;14.422;2023-03-21T03:27:57;10.23;;;5.63;;
77170;SDS011;66144;50.020;14.422;2023-03-21T03:30:25;13.95;;;6.25;;
77170;SDS011;66144;50.020;14.422;2023-03-21T03:32:56;9.18;;;5.22;;
77170;SDS011;66144;50.020;14.422;2023-03-21T03:35:27;12.50;;;6.35;;
77170;SDS011;66144;50.020;14.422;2023-03-21T03:37:54;12.38;;;6.97;;
77170;SDS011;66144;50.020;14.422;2023-03-21T03:40:26;10.45;;;6.30;;
77170;SDS011;66144;50.020;14.422;2023-03-21T03:42:57;11.13;;;6.07;;
77170;SDS011;66144;50.020;14.422;2023-03-21T03:45:28;10.50;;;5.82;;
77170;SDS011;66144;50.020;14.422;2023-03-21T03:48:03;13.18;;;7.22;;
77170;SDS011;66144;50.020;14.422;2023-03-21T03:53:21;12.27;;;6.82;;
77170;SDS011;66144;50.020;14.422;2023-03-21T03:58:19;12.10;;;5.97;;
77170;SDS011;66144;50.020;14.422;2023-03-21T04:00:45;9.60;;;5.40;;
77170;SDS011;66144;50.020;14.422;2023-03-21T04:03:11;12.18;;;6.35;;
77170;SDS011;66144;50.020;14.422;2023-03-21T04:05:37;10.35;;;6.57;;
77170;SDS011;66144;50.020;14.422;2023-03-21T04:08:03;10.77;;;5.95;;
77170;SDS011;66144;50.020;14.422;2023-03-21T04:10:28;10.23;;;6.28;;
77170;SDS011;66144;50.020;14.422;2023-03-21T04:12:54;10.70;;;5.78;;
77170;SDS011;66144;50.020;14.422;2023-03-21T04:15:19;11.02;;;5.70;;
77170;SDS011;66144;50.020;14.422;2023-03-21T04:17:45;12.95;;;7.53;;
77170;SDS011;66144;50.020;14.422;2023-03-21T04:20:11;13.10;;;6.95;;
77170;SDS011;66144;50.020;14.422;2023-03-21T04:22:37;11.73;;;5.50;;
77170;SDS011;66144;50.020;14.422;2023-03-21T04:25:02;9.48;;;5.75;;
77170;SDS011;66144;50.020;14.422;2023-03-21T04:27:29;11.02;;;6.28;;
77170;SDS011;66144;50.020;14.422;2023-03-21T04:29:56;11.48;;;6.72;;
77170;SDS011;66144;50.020;14.422;2023-03-21T04:32:22;11.02;;;6.63;;
77170;SDS011;66144;50.020;14.422;2023-03-21T04:34:48;10.68;;;6.05;;
77170;SDS011;66144;50.020;14.422;2023-03-21T04:37:18;14.07;;;6.90;;
77170;SDS011;66144;50.020;14.422;2023-03-21T04:39:45;13.48;;;6.95;;
77170;SDS011;66144;50.020;14.422;2023-03-21T04:42:12;12.75;;;6.68;;
77170;SDS011;66144;50.020;14.422;2023-03-21T04:44:38;13.68;;;6.38;;
77170;SDS011;66144;50.020;14.422;2023-03-21T04:47:05;14.65;;;7.43;;
77170;SDS011;66144;50.020;14.422;2023-03-21T04:49:30;10.77;;;5.82;;
77170;SDS011;66144;50.020;14.422;2023-03-21T04:51:56;12.90;;;6.43;;
77170;SDS011;66144;50.020;14.422;2023-03-21T04:54:22;11.18;;;6.70;;
77170;SDS011;66144;50.020;14.422;2023-03-21T04:56:47;12.63;;;7.18;;
77170;SDS011;66144;50.020;14.422;2023-03-21T04:59:13;11.65;;;6.93;;
77170;SDS011;66144;50.020;14.422;2023-03-21T05:01:40;13.10;;;6.32;;
77170;SDS011;66144;50.020;14.422;2023-03-21T05:04:08;10.80;;;6.28;;
77170;SDS011;66144;50.020;14.422;2023-03-21T05:06:34;12.25;;;6.40;;
77170;SDS011;66144;50.020;14.422;2023-03-21T05:09:00;16.20;;;6.70;;
77170;SDS011;66144;50.020;14.422;2023-03-21T05:11:31;14.95;;;5.75;;
77170;SDS011;66144;50.020;14.422;2023-03-21T05:13:59;13.52;;;6.95;;
77170;SDS011;66144;50.020;14.422;2023-03-21T05:16:25;10.88;;;6.00;;
77170;SDS011;66144;50.020;14.422;2023-03-21T05:18:55;11.95;;;7.10;;
77170;SDS011;66144;50.020;14.422;2023-03-21T05:21:22;13.75;;;7.43;;
77170;SDS011;66144;50.020;14.422;2023-03-21T05:23:49;13.05;;;7.63;;
77170;SDS011;66144;50.020;14.422;2023-03-21T05:26:22;13.90;;;7.28;;
77170;SDS011;66144;50.020;14.422;2023-03-21T05:28:48;14.60;;;7.60;;
77170;SDS011;66144;50.020;14.422;2023-03-21T05:31:14;13.73;;;7.45;;
77170;SDS011;66144;50.020;14.422;2023-03-21T05:33:41;16.88;;;7.88;;
77170;SDS011;66144;50.020;14.422;2023-03-21T05:36:07;12.95;;;7.20;;
77170;SDS011;66144;50.020;14.422;2023-03-21T05:38:33;13.75;;;7.00;;
77170;SDS011;66144;50.020;14.422;2023-03-21T05:40:58;11.93;;;7.45;;
77170;SDS011;66144;50.020;14.422;2023-03-21T05:43:23;13.55;;;8.20;;
77170;SDS011;66144;50.020;14.422;2023-03-21T05:45:49;11.93;;;6.85;;
77170;SDS011;66144;50.020;14.422;2023-03-21T05:48:14;11.43;;;6.72;;
77170;SDS011;66144;50.020;14.422;2023-03-21T05:50:40;12.35;;;7.40;;
77170;SDS011;66144;50.020;14.422;2023-03-21T05:53:05;11.40;;;7.47;;
77170;SDS011;66144;50.020;14.422;2023-03-21T05:55:31;13.18;;;7.85;;
77170;SDS011;66144;50.020;14.422;2023-03-21T05:57:56;14.63;;;7.47;;
77170;SDS011;66144;50.020;14.422;2023-03-21T06:00:22;12.48;;;7.40;;
77170;SDS011;66144;50.020;14.422;2023-03-21T06:02:47;13.05;;;6.93;;
77170;SDS011;66144;50.020;14.422;2023-03-21T06:05:13;14.85;;;7.82;;
77170;SDS011;66144;50.020;14.422;2023-03-21T06:07:38;14.23;;;7.80;;
77170;SDS011;66144;50.020;14.422;2023-03-21T06:10:04;11.93;;;7.53;;
77170;SDS011;66144;50.020;14.422;2023-03-21T06:12:30;13.65;;;7.00;;
77170;SDS011;66144;50.020;14.422;2023-03-21T06:14:56;14.88;;;8.00;;
77170;SDS011;66144;50.020;14.422;2023-03-21T06:17:21;12.95;;;8.55;;
77170;SDS011;66144;50.020;14.422;2023-03-21T06:19:47;12.10;;;7.07;;
77170;SDS011;66144;50.020;14.422;2023-03-21T06:22:12;11.85;;;6.95;;
77170;SDS011;66144;50.020;14.422;2023-03-21T06:24:38;13.43;;;7.38;;
77170;SDS011;66144;50.020;14.422;2023-03-21T06:27:03;15.07;;;7.82;;
77170;SDS011;66144;50.020;14.422;2023-03-21T06:29:29;12.85;;;7.07;;
77170;SDS011;66144;50.020;14.422;2023-03-21T06:31:56;13.70;;;6.78;;
77170;SDS011;66144;50.020;14.422;2023-03-21T06:34:21;12.55;;;7.05;;
77170;SDS011;66144;50.020;14.422;2023-03-21T06:36:47;15.35;;;6.35;;
77170;SDS011;66144;50.020;14.422;2023-03-21T06:39:12;14.45;;;6.88;;
77170;SDS011;66144;50.020;14.422;2023-03-21T06:41:37;12.90;;;7.32;;
77170;SDS011;66144;50.020;14.422;2023-03-21T06:44:03;12.90;;;7.28;;
77170;SDS011;66144;50.020;14.422;2023-03-21T06:46:29;10.35;;;7.00;;
77170;SDS011;66144;50.020;14.422;2023-03-21T06:48:55;11.68;;;6.57;;
77170;SDS011;66144;50.020;14.422;2023-03-21T06:51:20;16.08;;;7.18;;
77170;SDS011;66144;50.020;14.422;2023-03-21T06:53:45;13.77;;;6.97;;
77170;SDS011;66144;50.020;14.422;2023-03-21T06:56:11;11.52;;;7.05;;
77170;SDS011;66144;50.020;14.422;2023-03-21T06:58:38;13.75;;;7.15;;
77170;SDS011;66144;50.020;14.422;2023-03-21T07:01:04;11.70;;;7.13;;
77170;SDS011;66144;50.020;14.422;2023-03-21T07:03:31;13.90;;;6.40;;
77170;SDS011;66144;50.020;14.422;2023-03-21T07:05:57;12.55;;;7.43;;
77170;SDS011;66144;50.020;14.422;2023-03-21T07:08:22;13.93;;;7.35;;
77170;SDS011;66144;50.020;14.422;2023-03-21T07:10:49;10.88;;;6.70;;
77170;SDS011;66144;50.020;14.422;2023-03-21T07:13:15;11.63;;;7.05;;
77170;SDS011;66144;50.020;14.422;2023-03-21T07:15:40;9.88;;;6.00;;
77170;SDS011;66144;50.020;14.422;2023-03-21T07:18:06;11.00;;;6.68;;
77170;SDS011;66144;50.020;14.422;2023-03-21T07:20:33;12.00;;;7.05;;
77170;SDS011;66144;50.020;14.422;2023-03-21T07:23:00;10.90;;;7.20;;
77170;SDS011;66144;50.020;14.422;2023-03-21T07:25:26;11.50;;;6.05;;
77170;SDS011;66144;50.020;14.422;2023-03-21T07:27:51;13.75;;;6.68;;
77170;SDS011;66144;50.020;14.422;2023-03-21T07:30:17;13.32;;;6.72;;
77170;SDS011;66144;50.020;14.422;2023-03-21T07:32:43;10.73;;;5.78;;
77170;SDS011;66144;50.020;14.422;2023-03-21T07:35:10;10.35;;;5.88;;
77170;SDS011;66144;50.020;14.422;2023-03-21T07:37:37;8.50;;;5.35;;
77170;SDS011;66144;50.020;14.422;2023-03-21T07:40:04;8.23;;;5.60;;
77170;SDS011;66144;50.020;14.422;2023-03-21T07:42:34;11.73;;;5.88;;
77170;SDS011;66144;50.020;14.422;2023-03-21T07:45:01;9.55;;;5.10;;
77170;SDS011;66144;50.020;14.422;2023-03-21T07:47:29;8.40;;;5.15;;
77170;SDS011;66144;50.020;14.422;2023-03-21T07:49:55;9.57;;;5.55;;
77170;SDS011;66144;50.020;14.422;2023-03-21T07:52:20;10.32;;;5.65;;
77170;SDS011;66144;50.020;14.422;2023-03-21T07:54:46;8.55;;;5.20;;
77170;SDS011;66144;50.020;14.422;2023-03-21T07:57:11;9.13;;;4.75;;
77170;SDS011;66144;50.020;14.422;2023-03-21T07:59:37;9.63;;;5.30;;
77170;SDS011;66144;50.020;14.422;2023-03-21T08:02:02;10.38;;;5.95;;
77170;SDS011;66144;50.020;14.422;2023-03-21T08:04:27;10.27;;;5.50;;
77170;SDS011;66144;50.020;14.422;2023-03-21T08:06:53;10.05;;;5.47;;
77170;SDS011;66144;50.020;14.422;2023-03-21T08:09:18;9.60;;;5.35;;
77170;SDS011;66144;50.020;14.422;2023-03-21T08:11:44;9.85;;;5.32;;
77170;SDS011;66144;50.020;14.422;2023-03-21T08:14:09;9.00;;;5.40;;
77170;SDS011;66144;50.020;14.422;2023-03-21T08:16:35;8.68;;;4.95;;
77170;SDS011;66144;50.020;14.422;2023-03-21T08:19:00;8.63;;;5.65;;
77170;SDS011;66144;50.020;14.422;2023-03-21T08:21:26;10.43;;;5.50;;
77170;SDS011;66144;50.020;14.422;2023-03-21T08:23:51;9.50;;;5.45;;
77170;SDS011;66144;50.020;14.422;2023-03-21T08:26:17;7.32;;;5.30;;
77170;SDS011;66144;50.020;14.422;2023-03-21T08:28:43;8.57;;;5.13;;
77170;SDS011;66144;50.020;14.422;2023-03-21T08:31:09;8.45;;;5.15;;
77170;SDS011;66144;50.020;14.422;2023-03-21T08:33:36;10.10;;;5.60;;
77170;SDS011;66144;50.020;14.422;2023-03-21T08:36:02;8.30;;;5.57;;
77170;SDS011;66144;50.020;14.422;2023-03-21T08:38:29;10.52;;;5.78;;
77170;SDS011;66144;50.020;14.422;2023-03-21T08:40:57;7.30;;;5.07;;
77170;SDS011;66144;50.020;14.422;2023-03-21T08:43:26;8.00;;;5.45;;
77170;SDS011;66144;50.020;14.422;2023-03-21T08:45:53;7.60;;;4.82;;
77170;SDS011;66144;50.020;14.422;2023-03-21T08:48:19;8.98;;;5.05;;
77170;SDS011;66144;50.020;14.422;2023-03-21T08:50:45;9.48;;;5.32;;
77170;SDS011;66144;50.020;14.422;2023-03-21T08:53:10;8.07;;;4.70;;
77170;SDS011;66144;50.020;14.422;2023-03-21T08:55:36;6.85;;;4.78;;
77170;SDS011;66144;50.020;14.422;2023-03-21T08:58:02;7.97;;;4.35;;
77170;SDS011;66144;50.020;14.422;2023-03-21T09:00:27;8.57;;;4.28;;
77170;SDS011;66144;50.020;14.422;2023-03-21T09:02:53;7.43;;;4.50;;
77170;SDS011;66144;50.020;14.422;2023-03-21T09:05:20;7.85;;;4.45;;
77170;SDS011;66144;50.020;14.422;2023-03-21T09:07:46;5.30;;;3.60;;
77170;SDS011;66144;50.020;14.422;2023-03-21T09:10:13;5.97;;;3.42;;
77170;SDS011;66144;50.020;14.422;2023-03-21T09:12:42;5.57;;;3.47;;
77170;SDS011;66144;50.020;14.422;2023-03-21T09:15:08;6.80;;;3.83;;
77170;SDS011;66144;50.020;14.422;2023-03-21T09:17:36;7.18;;;4.05;;
77170;SDS011;66144;50.020;14.422;2023-03-21T09:20:07;7.05;;;3.80;;
77170;SDS011;66144;50.020;14.422;2023-03-21T09:22:46;5.90;;;3.08;;
77170;SDS011;66144;50.020;14.422;2023-03-21T09:25:16;5.10;;;2.85;;
77170;SDS011;66144;50.020;14.422;2023-03-21T09:27:44;8.13;;;3.40;;
77170;SDS011;66144;50.020;14.422;2023-03-21T09:30:10;8.75;;;3.42;;
77170;SDS011;66144;50.020;14.422;2023-03-21T09:32:37;6.30;;;3.40;;
77170;SDS011;66144;50.020;14.422;2023-03-21T09:35:04;5.75;;;3.47;;
77170;SDS011;66144;50.020;14.422;2023-03-21T09:37:30;6.15;;;3.25;;
77170;SDS011;66144;50.020;14.422;2023-03-21T09:39:56;3.97;;;2.58;;
77170;SDS011;66144;50.020;14.422;2023-03-21T09:42:28;3.28;;;1.95;;
77170;SDS011;66144;50.020;14.422;2023-03-21T09:47:46;5.32;;;2.22;;
77170;SDS011;66144;50.020;14.422;2023-03-21T09:55:54;7.25;;;2.55;;
77170;SDS011;66144;50.020;14.422;2023-03-21T10:00:47;6.40;;;2.72;;
77170;SDS011;66144;50.020;14.422;2023-03-21T10:03:21;5.07;;;3.20;;
77170;SDS011;66144;50.020;14.422;2023-03-21T10:05:53;3.92;;;2.28;;
77170;SDS011;66144;50.020;14.422;2023-03-21T10:08:23;4.93;;;3.25;;
77170;SDS011;66144;50.020;14.422;2023-03-21T10:10:57;5.10;;;2.70;;
77170;SDS011;66144;50.020;14.422;2023-03-21T10:13:28;8.15;;;3.28;;
77170;SDS011;66144;50.020;14.422;2023-03-21T10:15:59;6.47;;;3.30;;
77170;SDS011;66144;50.020;14.422;2023-03-21T10:18:44;4.88;;;3.33;;
77170;SDS011;66144;50.020;14.422;2023-03-21T10:21:15;5.03;;;3.72;;
77170;SDS011;66144;50.020;14.422;2023-03-21T10:23:45;5.45;;;3.33;;
77170;SDS011;66144;50.020;14.422;2023-03-21T10:26:10;5.75;;;3.47;;
77170;SDS011;66144;50.020;14.422;2023-03-21T10:28:37;5.22;;;3.45;;
77170;SDS011;66144;50.020;14.422;2023-03-21T10:31:06;7.63;;;3.67;;
77170;SDS011;66144;50.020;14.422;2023-03-21T10:33:37;5.97;;;3.13;;
77170;SDS011;66144;50.020;14.422;2023-03-21T10:36:10;6.60;;;3.75;;
77170;SDS011;66144;50.020;14.422;2023-03-21T10:39:03;7.38;;;4.13;;
77170;SDS011;66144;50.020;14.422;2023-03-21T10:41:29;5.35;;;3.38;;
77170;SDS011;66144;50.020;14.422;2023-03-21T10:46:35;5.13;;;3.65;;
77170;SDS011;66144;50.020;14.422;2023-03-21T10:49:01;5.00;;;3.63;;
77170;SDS011;66144;50.020;14.422;2023-03-21T10:51:27;4.93;;;3.53;;
77170;SDS011;66144;50.020;14.422;2023-03-21T10:54:00;6.03;;;4.40;;
77170;SDS011;66144;50.020;14.422;2023-03-21T10:56:34;5.78;;;3.92;;
77170;SDS011;66144;50.020;14.422;2023-03-21T10:59:03;7.72;;;4.28;;
77170;SDS011;66144;50.020;14.422;2023-03-21T11:04:06;5.97;;;3.90;;
77170;SDS011;66144;50.020;14.422;2023-03-21T11:06:38;5.50;;;3.90;;
77170;SDS011;66144;50.020;14.422;2023-03-21T11:09:07;6.82;;;4.30;;
77170;SDS011;66144;50.020;14.422;2023-03-21T11:11:40;5.72;;;3.58;;
77170;SDS011;66144;50.020;14.422;2023-03-21T11:14:31;4.47;;;3.20;;
77170;SDS011;66144;50.020;14.422;2023-03-21T11:17:07;3.88;;;2.72;;
77170;SDS011;66144;50.020;14.422;2023-03-21T11:19:51;3.03;;;2.03;;
77170;SDS011;66144;50.020;14.422;2023-03-21T11:22:21;4.30;;;2.15;;
77170;SDS011;66144;50.020;14.422;2023-03-21T11:24:52;2.72;;;1.60;;
77170;SDS011;66144;50.020;14.422;2023-03-21T11:27:21;2.72;;;1.90;;
77170;SDS011;66144;50.020;14.422;2023-03-21T11:29:48;3.83;;;1.88;;
77170;SDS011;66144;50.020;14.422;2023-03-21T11:32:22;2.75;;;1.70;;
77170;SDS011;66144;50.020;14.422;2023-03-21T11:34:51;2.90;;;1.50;;
77170;SDS011;66144;50.020;14.422;2023-03-21T11:37:26;2.65;;;1.60;;
77170;SDS011;66144;50.020;14.422;2023-03-21T11:42:46;3.13;;;2.38;;
77170;SDS011;66144;50.020;14.422;2023-03-21T11:45:17;3.10;;;1.70;;
77170;SDS011;66144;50.020;14.422;2023-03-21T11:47:51;2.72;;;1.58;;
77170;SDS011;66144;50.020;14.422;2023-03-21T11:55:19;2.45;;;1.63;;
77170;SDS011;66144;50.020;14.422;2023-03-21T11:58:00;4.00;;;1.83;;
77170;SDS011;66144;50.020;14.422;2023-03-21T12:05:52;2.92;;;1.80;;
77170;SDS011;66144;50.020;14.422;2023-03-21T12:11:24;3.63;;;2.20;;
77170;SDS011;66144;50.020;14.422;2023-03-21T12:21:30;3.65;;;2.22;;
77170;SDS011;66144;50.020;14.422;2023-03-21T12:24:14;3.60;;;2.30;;
77170;SDS011;66144;50.020;14.422;2023-03-21T12:26:57;5.60;;;2.65;;
77170;SDS011;66144;50.020;14.422;2023-03-21T12:40:29;2.92;;;1.90;;
77170;SDS011;66144;50.020;14.422;2023-03-21T12:45:49;3.28;;;1.85;;
77170;SDS011;66144;50.020;14.422;2023-03-21T12:48:21;3.08;;;1.98;;
77170;SDS011;66144;50.020;14.422;2023-03-21T12:51:06;5.53;;;2.00;;
77170;SDS011;66144;50.020;14.422;2023-03-21T12:53:42;3.97;;;2.10;;
77170;SDS011;66144;50.020;14.422;2023-03-21T12:56:17;3.28;;;2.38;;
77170;SDS011;66144;50.020;14.422;2023-03-21T12:58:53;5.25;;;1.90;;
77170;SDS011;66144;50.020;14.422;2023-03-21T13:01:23;3.38;;;2.17;;
77170;SDS011;66144;50.020;14.422;2023-03-21T13:04:03;3.47;;;1.73;;
77170;SDS011;66144;50.020;14.422;2023-03-21T13:06:51;3.15;;;1.90;;
77170;SDS011;66144;50.020;14.422;2023-03-21T13:09:32;5.40;;;2.25;;
77170;SDS011;66144;50.020;14.422;2023-03-21T13:12:18;2.53;;;1.80;;
77170;SDS011;66144;50.020;14.422;2023-03-21T13:15:06;4.45;;;1.90;;
77170;SDS011;66144;50.020;14.422;2023-03-21T13:17:41;2.65;;;1.63;;
77170;SDS011;66144;50.020;14.422;2023-03-21T13:23:05;3.25;;;1.88;;
77170;SDS011;66144;50.020;14.422;2023-03-21T13:25:39;4.03;;;1.90;;
77170;SDS011;66144;50.020;14.422;2023-03-21T13:28:12;4.80;;;2.00;;
77170;SDS011;66144;50.020;14.422;2023-03-21T13:30:45;4.20;;;1.85;;
77170;SDS011;66144;50.020;14.422;2023-03-21T13:33:13;3.05;;;2.00;;
77170;SDS011;66144;50.020;14.422;2023-03-21T13:35:59;5.18;;;1.88;;
77170;SDS011;66144;50.020;14.422;2023-03-21T13:38:31;6.00;;;2.08;;
77170;SDS011;66144;50.020;14.422;2023-03-21T13:41:04;4.00;;;1.98;;
77170;SDS011;66144;50.020;14.422;2023-03-21T13:46:04;5.20;;;2.25;;
77170;SDS011;66144;50.020;14.422;2023-03-21T13:48:41;3.13;;;1.80;;
77170;SDS011;66144;50.020;14.422;2023-03-21T13:51:07;4.90;;;1.85;;
77170;SDS011;66144;50.020;14.422;2023-03-21T13:53:39;3.38;;;1.88;;
77170;SDS011;66144;50.020;14.422;2023-03-21T14:09:30;2.33;;;1.20;;
77170;SDS011;66144;50.020;14.422;2023-03-21T14:11:57;5.53;;;1.45;;
77170;SDS011;66144;50.020;14.422;2023-03-21T14:14:25;4.15;;;1.60;;
77170;SDS011;66144;50.020;14.422;2023-03-21T14:16:57;2.38;;;1.35;;
77170;SDS011;66144;50.020;14.422;2023-03-21T14:19:30;57.30;;;5.50;;
77170;SDS011;66144;50.020;14.422;2023-03-21T14:21:56;4.28;;;1.70;;
77170;SDS011;66144;50.020;14.422;2023-03-21T14:24:22;7.60;;;1.60;;
77170;SDS011;66144;50.020;14.422;2023-03-21T14:26:51;3.40;;;1.67;;
77170;SDS011;66144;50.020;14.422;2023-03-21T14:29:25;2.90;;;1.45;;
77170;SDS011;66144;50.020;14.422;2023-03-21T14:31:55;2.55;;;1.23;;
77170;SDS011;66144;50.020;14.422;2023-03-21T14:34:21;2.13;;;1.25;;
77170;SDS011;66144;50.020;14.422;2023-03-21T14:36:48;2.08;;;1.33;;
77170;SDS011;66144;50.020;14.422;2023-03-21T14:39:15;5.85;;;1.60;;
77170;SDS011;66144;50.020;14.422;2023-03-21T14:41:51;3.85;;;1.52;;
77170;SDS011;66144;50.020;14.422;2023-03-21T14:47:15;3.92;;;2.00;;
77170;SDS011;66144;50.020;14.422;2023-03-21T14:49:56;3.78;;;2.08;;
77170;SDS011;66144;50.020;14.422;2023-03-21T14:52:26;4.90;;;1.67;;
77170;SDS011;66144;50.020;14.422;2023-03-21T14:54:57;5.13;;;2.30;;
77170;SDS011;66144;50.020;14.422;2023-03-21T14:57:26;4.82;;;2.00;;
77170;SDS011;66144;50.020;14.422;2023-03-21T15:00:03;7.53;;;2.00;;
77170;SDS011;66144;50.020;14.422;2023-03-21T15:02:37;3.63;;;1.70;;
77170;SDS011;66144;50.020;14.422;2023-03-21T15:07:34;3.00;;;1.52;;
77170;SDS011;66144;50.020;14.422;2023-03-21T15:14:08;3.38;;;1.42;;
77170;SDS011;66144;50.020;14.422;2023-03-21T15:20:35;3.28;;;1.60;;
77170;SDS011;66144;50.020;14.422;2023-03-21T15:23:09;2.95;;;1.55;;
77170;SDS011;66144;50.020;14.422;2023-03-21T15:28:40;3.70;;;2.35;;
77170;SDS011;66144;50.020;14.422;2023-03-21T15:31:17;4.07;;;1.95;;
77170;SDS011;66144;50.020;14.422;2023-03-21T15:34:33;5.53;;;1.98;;
77170;SDS011;66144;50.020;14.422;2023-03-21T15:44:01;5.25;;;2.80;;
77170;SDS011;66144;50.020;14.422;2023-03-21T15:47:00;4.88;;;2.50;;
77170;SDS011;66144;50.020;14.422;2023-03-21T15:49:36;5.30;;;2.42;;
77170;SDS011;66144;50.020;14.422;2023-03-21T15:52:13;7.45;;;2.35;;
77170;SDS011;66144;50.020;14.422;2023-03-21T15:57:38;4.47;;;2.58;;
77170;SDS011;66144;50.020;14.422;2023-03-21T16:03:02;4.85;;;2.53;;
77170;SDS011;66144;50.020;14.422;2023-03-21T16:06:19;4.82;;;2.50;;
77170;SDS011;66144;50.020;14.422;2023-03-21T16:08:53;6.60;;;2.70;;
77170;SDS011;66144;50.020;14.422;2023-03-21T16:12:00;4.95;;;2.33;;
77170;SDS011;66144;50.020;14.422;2023-03-21T16:14:32;3.50;;;1.90;;
77170;SDS011;66144;50.020;14.422;2023-03-21T16:16:58;4.20;;;2.45;;
77170;SDS011;66144;50.020;14.422;2023-03-21T16:19:23;5.20;;;2.50;;
77170;SDS011;66144;50.020;14.422;2023-03-21T16:21:51;3.50;;;2.08;;
77170;SDS011;66144;50.020;14.422;2023-03-21T16:24:17;4.38;;;2.58;;
77170;SDS011;66144;50.020;14.422;2023-03-21T16:26:43;12.13;;;2.80;;
77170;SDS011;66144;50.020;14.422;2023-03-21T16:29:14;4.05;;;2.55;;
77170;SDS011;66144;50.020;14.422;2023-03-21T16:31:41;5.10;;;2.67;;
77170;SDS011;66144;50.020;14.422;2023-03-21T16:34:07;10.02;;;2.90;;
77170;SDS011;66144;50.020;14.422;2023-03-21T16:36:34;3.85;;;1.98;;
77170;SDS011;66144;50.020;14.422;2023-03-21T16:39:06;6.15;;;2.40;;
77170;SDS011;66144;50.020;14.422;2023-03-21T16:41:40;5.25;;;2.55;;
77170;SDS011;66144;50.020;14.422;2023-03-21T16:44:06;4.80;;;2.90;;
77170;SDS011;66144;50.020;14.422;2023-03-21T16:46:32;5.13;;;2.70;;
77170;SDS011;66144;50.020;14.422;2023-03-21T16:48:57;9.93;;;3.20;;
77170;SDS011;66144;50.020;14.422;2023-03-21T16:51:25;5.45;;;2.40;;
77170;SDS011;66144;50.020;14.422;2023-03-21T16:58:53;4.68;;;2.78;;
77170;SDS011;66144;50.020;14.422;2023-03-21T17:01:20;7.40;;;3.10;;
77170;SDS011;66144;50.020;14.422;2023-03-21T17:03:50;5.85;;;2.67;;
77170;SDS011;66144;50.020;14.422;2023-03-21T17:06:16;6.00;;;2.90;;
77170;SDS011;66144;50.020;14.422;2023-03-21T17:08:44;5.88;;;2.88;;
77170;SDS011;66144;50.020;14.422;2023-03-21T17:11:13;5.32;;;2.92;;
77170;SDS011;66144;50.020;14.422;2023-03-21T17:13:42;6.82;;;3.20;;
77170;SDS011;66144;50.020;14.422;2023-03-21T17:16:09;7.63;;;3.15;;
77170;SDS011;66144;50.020;14.422;2023-03-21T17:18:36;5.07;;;3.38;;